Terminal Aerodrome Forecast
Issued by NWS

Home | Current Version | Previous Version | Text Only | Print | Product List | Glossary On
Versions: 1 2 3 4 5 6 7 8 9 10 11 12 13 14 15 16 17 18 19 20 21 22 23 24
000
FTUS41 KRLX 271100
TAFCKB
TAF
KCKB 271135Z 2712/2812 00000KT 3SM BR OVC005
     FM271300 29006KT 5SM BR SCT006 OVC020
     FM271800 28007KT P6SM OVC025
     FM280300 27006KT 6SM BR BKN020
     FM280500 28006KT 4SM BR BKN020=

USA.gov is the U.S. government's official web portal to all federal, state and local government web resources and services.